845  
SHUS65 KGJT 262014  
FWOGJT  
 
DAILY FIRE WEATHER OBSERVATION  
NATIONAL WEATHER SERVICE GRAND JUNCTION CO  
212 PM MDT WED APR 26 2017  
 
STATE OF THE WEATHER (W) 1  
DRY BULB TEMPERATURE 58 DEGREES FAHRENHEIT  
RELATIVE HUMIDITY (RH) 34 PERCENT  
LIGHTNING ACTIVITY LEVEL  
(LAL - MIDNIGHT TO 2 PM) 1  
WIND DIRECTION 270 DEGREES (C IF CALM)  
WIND SPEED 10 MPH  
MAX TEMP (2 PM - 2 PM) 59 DEGREES FAHRENHEIT  
MIN TEMP (2 PM - 2 PM) 34 DEGREES FAHRENHEIT  
MAX RH (2 PM - 2 PM) 97 PERCENT  
MIN RH (2 PM - 2 PM) 34 PERCENT  
PCPN DURATION 0.1 HOURS  
PCPN AMT (2 PM - 2 PM) 0.01 INCHES  
LAL (2 PM - 2 PM) 2  
 

 
 
METAR KGJT 261953Z 28009KT 10SM FEW050 SCT090 14/M01 A2983 RMK  
AO2 SLP073 T01441011  
 
CLICK HERE TO GO TO PREVIOUS BULLETINS.

The Nexlab CO Page
The Nexlab UT Page Main Text Page